Aérodrome :
LOGIN :

S'inscrire | Disclaimer

   EN    FR    IT 

 










Légende :    VFR   VFR Marginal   IFR   IFR Intensif   IFR Très Intensif
Visi : 
Plafond : 
>= 8 km
>= 3000ft
5 à 8 km
1000 à 3000 ft
1500m à 5 km
500 à 1000 ft
800 à 1500m
200 à 500 ft
< 800m
< 200 ft
Symboles :   Orages  Brouillard  Fortes neiges  Fortes précipitations  Vent > 20 kt
SIGMETs :   Divers  Orages  Givrage  Turbulence  Onde Orograph.  Cendres Volcan.







- Altitude de l'aérodrome : 100 ft


EBDT - Schaffen

DERNIER METAR :
  • 211355Z AUTO 26008KT 9999 OVC049/// 13/05 Q1028 BLU

METARs EXPIRÉS :
  • 211325Z AUTO 26009KT 9999 BKN050/// BKN065/// 13/06 Q1027 BLU
  • 211255Z AUTO 23007KT 9999 FEW031/// BKN055/// BKN075/// 14/06 Q1027 BLU
  • 211225Z AUTO 24007KT 9999 BKN055/// BKN075/// 13/06 Q1027 BLU
  • 211155Z AUTO 23006KT 9999 SCT055/// BKN070/// OVC085/// 12/06 Q1028 BLU
  • 211125Z AUTO 21006KT 9999 SCT085/// BKN100/// 12/06 Q1028 BLU

Prévision TAF périmée.
Pas de NOTAMs connus pour ce terrain.



MET'MAP, la Météo Aéronautique d'un coup d'oeil ! - Copyright ORBIFLY Décembre 2007 - Disclaimer

ORBIFLY MET'MAP TEAM :

Programmation & Développement : Alexandra Zaïnal
Conception & Développement : Baudouin d'Aumeries
Co-Programmation & Développement : Marc-Olivier Méhu
Soutien technique & logistique : Manuel Goepfert

Contact : metmap@orbifly.com




SOURCES & CREDITS :

   NOAA